createdAt,value
2019-01-25T00:15:01.767Z,-2.50
2019-01-25T00:31:12.569Z,-2.50
2019-01-25T00:35:17.107Z,-2.50
2019-01-25T00:40:14.764Z,-2.50
2019-01-25T00:56:35.140Z,-2.50
2019-01-25T01:00:39.719Z,-2.50
2019-01-25T01:13:19.900Z,-2.50
2019-01-25T01:26:26.687Z,-2.60
2019-01-25T01:37:22.704Z,-2.70
2019-01-25T01:41:27.257Z,-2.70
2019-01-25T01:47:55.919Z,-2.60
2019-01-25T01:52:42.823Z,-2.60
2019-01-25T01:58:20.568Z,-2.60
2019-01-25T02:14:47.799Z,-2.70
2019-01-25T02:27:50.842Z,-2.70
2019-01-25T02:35:17.678Z,-2.60
2019-01-25T02:39:22.243Z,-2.60
2019-01-25T02:43:26.798Z,-2.60
2019-01-25T02:47:31.341Z,-2.60
2019-01-25T02:51:35.833Z,-2.60
2019-01-25T02:58:41.266Z,-2.60
2019-01-25T03:05:35.650Z,-2.60
2019-01-25T03:12:26.941Z,-2.60
2019-01-25T03:23:27.272Z,-2.60
2019-01-25T03:32:55.202Z,-2.60
2019-01-25T04:03:28.276Z,-2.60
2019-01-25T04:14:59.021Z,-2.70
2019-01-25T04:34:18.590Z,-2.80
2019-01-25T04:38:23.128Z,-2.80
2019-01-25T04:46:31.108Z,-2.80
2019-01-25T04:53:28.219Z,-2.80
2019-01-25T04:59:18.695Z,-2.70
2019-01-25T05:03:23.237Z,-2.70
2019-01-25T05:07:27.783Z,-2.80
2019-01-25T05:12:34.625Z,-2.70
2019-01-25T05:16:39.163Z,-2.70
2019-01-25T05:24:21.423Z,-2.90
2019-01-25T05:31:20.808Z,-2.60
2019-01-25T05:38:18.613Z,-2.60
2019-01-25T05:47:11.530Z,-2.60
2019-01-25T05:51:16.124Z,-2.60
2019-01-25T05:55:21.686Z,-2.70
2019-01-25T06:17:05.746Z,-2.50
2019-01-25T06:23:17.883Z,-2.50
2019-01-25T06:28:53.807Z,-2.50
2019-01-25T06:38:44.870Z,-2.40
2019-01-25T06:43:18.232Z,-2.50
2019-01-25T06:56:38.991Z,-2.40
2019-01-25T07:01:53.828Z,-2.40
2019-01-25T07:14:03.247Z,-2.50
2019-01-25T07:19:53.996Z,-2.50
2019-01-25T07:32:17.715Z,-2.50
2019-01-25T07:45:51.964Z,-4.00
2019-01-25T08:09:06.920Z,-2.60
2019-01-25T08:14:45.700Z,-2.60
2019-01-25T08:18:50.278Z,-2.50
2019-01-25T08:38:46.135Z,-2.60
2019-01-25T08:42:50.720Z,-2.50
2019-01-25T08:50:56.822Z,-2.50
2019-01-25T08:58:11.257Z,-2.50
2019-01-25T09:02:15.793Z,-2.40
2019-01-25T09:14:00.927Z,-2.40
2019-01-25T09:18:05.970Z,-2.40
2019-01-25T09:22:10.494Z,-2.40
2019-01-25T09:32:38.469Z,-3.60
2019-01-25T09:36:43.020Z,-2.20
2019-01-25T09:42:20.920Z,-2.30
2019-01-25T09:46:25.469Z,-2.20
2019-01-25T09:59:18.626Z,-2.00
2019-01-25T10:05:53.275Z,-1.90
2019-01-25T10:09:57.826Z,-1.90
2019-01-25T10:14:02.334Z,-1.90
2019-01-25T10:22:08.809Z,-1.80
2019-01-25T10:26:13.497Z,-1.90
2019-01-25T10:30:20.943Z,-1.90
2019-01-25T10:38:20.048Z,-1.80
2019-01-25T10:44:39.755Z,-1.80
2019-01-25T10:48:44.307Z,-1.80
2019-01-25T11:04:11.955Z,-1.70
2019-01-25T11:09:18.959Z,-1.70
2019-01-25T11:17:45.642Z,-1.60
2019-01-25T11:21:50.183Z,-1.60
2019-01-25T11:29:02.571Z,-1.50
2019-01-25T11:33:08.724Z,-1.40
2019-01-25T11:38:21.628Z,-1.40
2019-01-25T11:45:09.716Z,-1.30
2019-01-25T11:56:22.791Z,-1.10
2019-01-25T12:14:51.406Z,-0.90
2019-01-25T12:18:55.951Z,-0.90
2019-01-25T12:23:00.612Z,-0.80
2019-01-25T12:30:38.220Z,-0.80
2019-01-25T12:34:42.944Z,-0.80
2019-01-25T12:39:09.972Z,-0.80
2019-01-25T12:45:41.903Z,-0.70
2019-01-25T12:49:46.493Z,-0.70
2019-01-25T12:53:51.008Z,-0.70
2019-01-25T12:57:55.527Z,-0.70
2019-01-25T13:02:00.755Z,-0.80
2019-01-25T13:06:06.275Z,-0.80
2019-01-25T13:10:12.841Z,-0.80
2019-01-25T13:14:17.387Z,-0.80
2019-01-25T13:18:21.903Z,-0.80
2019-01-25T13:22:26.584Z,-0.80
2019-01-25T13:29:07.519Z,-0.70
2019-01-25T13:35:45.311Z,-0.70
2019-01-25T13:40:13.319Z,-0.70
2019-01-25T13:45:53.700Z,-0.60
2019-01-25T13:59:15.100Z,-0.60
2019-01-25T14:57:05.095Z,-0.50
2019-01-25T15:01:09.676Z,-0.50
2019-01-25T15:14:15.770Z,-0.40
2019-01-25T15:23:36.648Z,-0.40
2019-01-25T15:39:30.349Z,-0.40
2019-01-25T15:52:59.854Z,-0.40
2019-01-25T15:58:51.679Z,-0.40
2019-01-25T16:02:56.423Z,-0.40
2019-01-25T16:07:00.929Z,-0.40
2019-01-25T16:14:23.699Z,-0.40
2019-01-25T16:18:28.203Z,-0.40
2019-01-25T16:24:33.199Z,-0.40
2019-01-25T16:37:12.191Z,-0.40
2019-01-25T16:41:18.060Z,-0.30
2019-01-25T16:49:58.423Z,-0.30
2019-01-25T17:14:22.970Z,-0.20
2019-01-25T17:52:43.626Z,0.00
2019-01-25T17:56:48.142Z,0.00
2019-01-25T18:05:11.079Z,-0.10
2019-01-25T18:15:17.753Z,0.00
2019-01-25T18:19:22.323Z,0.00
2019-01-25T18:26:39.889Z,0.00
2019-01-25T18:34:55.484Z,0.00
2019-01-25T18:40:36.823Z,0.10
2019-01-25T18:51:17.274Z,0.10
2019-01-25T18:56:36.963Z,0.10
2019-01-25T19:03:57.939Z,0.10
2019-01-25T19:17:20.650Z,0.20
2019-01-25T19:21:25.240Z,0.10
2019-01-25T19:25:52.996Z,0.10
2019-01-25T19:29:57.503Z,0.10
2019-01-25T19:34:02.043Z,0.10
2019-01-25T19:39:00.877Z,0.10
2019-01-25T19:43:06.107Z,0.10
2019-01-25T19:55:54.355Z,0.10
2019-01-25T19:59:58.891Z,0.20
2019-01-25T20:06:49.689Z,0.20
2019-01-25T20:22:25.294Z,0.40
2019-01-25T20:43:32.095Z,0.80
2019-01-25T20:47:36.630Z,1.20
2019-01-25T20:51:41.183Z,1.50
2019-01-25T20:55:45.723Z,1.40
2019-01-25T20:59:50.275Z,1.40
2019-01-25T21:03:54.764Z,1.30
2019-01-25T21:08:14.770Z,1.30
2019-01-25T21:22:06.524Z,1.30
2019-01-25T21:52:43.451Z,1.60
2019-01-25T22:09:55.239Z,1.60
2019-01-25T22:19:04.467Z,1.70
2019-01-25T22:26:38.891Z,1.70
2019-01-25T22:30:43.422Z,1.70
2019-01-25T22:49:05.335Z,1.90
2019-01-25T22:53:09.862Z,1.90
2019-01-25T23:01:36.067Z,1.80
2019-01-25T23:06:17.426Z,1.90
2019-01-25T23:10:23.067Z,1.90
2019-01-25T23:14:27.624Z,1.90
2019-01-25T23:18:32.148Z,1.90
2019-01-25T23:25:33.277Z,2.00
2019-01-25T23:29:37.815Z,2.10
2019-01-25T23:33:42.437Z,2.10
2019-01-25T23:50:34.121Z,2.20
2019-01-25T23:54:38.647Z,2.10
2019-01-25T23:58:43.200Z,2.20
